sensor_id;sensor_type;location;lat;lon;timestamp;temperature;humidity
792;DHT22;379;49.022;12.148;2023-04-28T00:00:03;8.20;74.70
792;DHT22;379;49.022;12.148;2023-04-28T00:02:30;8.20;74.40
792;DHT22;379;49.022;12.148;2023-04-28T00:04:58;8.30;74.20
792;DHT22;379;49.022;12.148;2023-04-28T00:07:26;8.30;74.10
792;DHT22;379;49.022;12.148;2023-04-28T00:09:53;8.20;74.00
792;DHT22;379;49.022;12.148;2023-04-28T00:12:21;8.20;74.10
792;DHT22;379;49.022;12.148;2023-04-28T00:14:48;8.20;74.00
792;DHT22;379;49.022;12.148;2023-04-28T00:17:14;8.30;74.00
792;DHT22;379;49.022;12.148;2023-04-28T00:19:41;8.30;74.00
792;DHT22;379;49.022;12.148;2023-04-28T00:22:08;8.30;73.70
792;DHT22;379;49.022;12.148;2023-04-28T00:24:36;8.30;73.70
792;DHT22;379;49.022;12.148;2023-04-28T00:27:02;8.30;73.70
792;DHT22;379;49.022;12.148;2023-04-28T00:29:29;8.30;74.30
792;DHT22;379;49.022;12.148;2023-04-28T00:31:56;8.30;73.90
792;DHT22;379;49.022;12.148;2023-04-28T00:34:23;8.30;73.90
792;DHT22;379;49.022;12.148;2023-04-28T00:36:49;8.30;74.20
792;DHT22;379;49.022;12.148;2023-04-28T00:39:16;8.30;74.40
792;DHT22;379;49.022;12.148;2023-04-28T00:41:44;8.20;74.40
792;DHT22;379;49.022;12.148;2023-04-28T00:44:11;8.20;74.60
792;DHT22;379;49.022;12.148;2023-04-28T00:46:38;8.10;74.60
792;DHT22;379;49.022;12.148;2023-04-28T00:49:04;8.10;74.90
792;DHT22;379;49.022;12.148;2023-04-28T00:51:31;8.20;75.00
792;DHT22;379;49.022;12.148;2023-04-28T00:53:59;8.20;74.80
792;DHT22;379;49.022;12.148;2023-04-28T00:56:27;8.20;74.60
792;DHT22;379;49.022;12.148;2023-04-28T00:58:56;8.20;74.50
792;DHT22;379;49.022;12.148;2023-04-28T01:01:24;8.20;74.70
792;DHT22;379;49.022;12.148;2023-04-28T01:03:51;8.20;74.70
792;DHT22;379;49.022;12.148;2023-04-28T01:06:18;8.20;74.60
792;DHT22;379;49.022;12.148;2023-04-28T01:08:47;8.30;74.60
792;DHT22;379;49.022;12.148;2023-04-28T01:11:14;8.30;74.60
792;DHT22;379;49.022;12.148;2023-04-28T01:13:41;8.40;74.70
792;DHT22;379;49.022;12.148;2023-04-28T01:16:09;8.40;74.70
792;DHT22;379;49.022;12.148;2023-04-28T01:18:36;8.30;74.50
792;DHT22;379;49.022;12.148;2023-04-28T01:21:04;8.30;74.60
792;DHT22;379;49.022;12.148;2023-04-28T01:23:31;8.30;74.90
792;DHT22;379;49.022;12.148;2023-04-28T01:25:59;8.20;74.90
792;DHT22;379;49.022;12.148;2023-04-28T01:28:26;8.20;74.90
792;DHT22;379;49.022;12.148;2023-04-28T01:30:53;8.30;74.70
792;DHT22;379;49.022;12.148;2023-04-28T01:33:20;8.20;74.10
792;DHT22;379;49.022;12.148;2023-04-28T01:35:47;8.20;74.70
792;DHT22;379;49.022;12.148;2023-04-28T01:38:14;8.20;74.80
792;DHT22;379;49.022;12.148;2023-04-28T01:40:41;8.20;75.50
792;DHT22;379;49.022;12.148;2023-04-28T01:43:09;8.20;74.40
792;DHT22;379;49.022;12.148;2023-04-28T01:45:36;8.20;74.90
792;DHT22;379;49.022;12.148;2023-04-28T01:48:03;8.20;74.90
792;DHT22;379;49.022;12.148;2023-04-28T01:50:30;8.20;75.00
792;DHT22;379;49.022;12.148;2023-04-28T01:52:56;8.20;74.80
792;DHT22;379;49.022;12.148;2023-04-28T01:55:23;8.20;74.90
792;DHT22;379;49.022;12.148;2023-04-28T01:57:50;8.30;74.70
792;DHT22;379;49.022;12.148;2023-04-28T02:00:18;8.30;74.90
792;DHT22;379;49.022;12.148;2023-04-28T02:02:45;8.20;74.60
792;DHT22;379;49.022;12.148;2023-04-28T02:05:12;8.30;74.30
792;DHT22;379;49.022;12.148;2023-04-28T02:07:38;8.40;74.00
792;DHT22;379;49.022;12.148;2023-04-28T02:10:06;8.40;74.00
792;DHT22;379;49.022;12.148;2023-04-28T02:12:33;8.40;73.90
792;DHT22;379;49.022;12.148;2023-04-28T02:14:59;8.30;73.90
792;DHT22;379;49.022;12.148;2023-04-28T02:17:30;8.30;73.70
792;DHT22;379;49.022;12.148;2023-04-28T02:19:56;8.30;73.60
792;DHT22;379;49.022;12.148;2023-04-28T02:22:23;8.40;73.50
792;DHT22;379;49.022;12.148;2023-04-28T02:24:50;8.40;73.40
792;DHT22;379;49.022;12.148;2023-04-28T02:27:17;8.30;73.70
792;DHT22;379;49.022;12.148;2023-04-28T02:29:44;8.30;74.00
792;DHT22;379;49.022;12.148;2023-04-28T02:32:10;8.30;73.70
792;DHT22;379;49.022;12.148;2023-04-28T02:34:39;8.30;73.90
792;DHT22;379;49.022;12.148;2023-04-28T02:37:05;8.30;74.00
792;DHT22;379;49.022;12.148;2023-04-28T02:39:32;8.20;74.00
792;DHT22;379;49.022;12.148;2023-04-28T02:41:59;8.30;73.70
792;DHT22;379;49.022;12.148;2023-04-28T02:44:26;8.30;73.80
792;DHT22;379;49.022;12.148;2023-04-28T02:46:52;8.20;73.90
792;DHT22;379;49.022;12.148;2023-04-28T02:49:19;8.20;74.20
792;DHT22;379;49.022;12.148;2023-04-28T02:51:47;8.20;74.30
792;DHT22;379;49.022;12.148;2023-04-28T02:54:14;8.10;74.50
792;DHT22;379;49.022;12.148;2023-04-28T02:56:40;8.10;74.60
792;DHT22;379;49.022;12.148;2023-04-28T02:59:07;8.10;74.60
792;DHT22;379;49.022;12.148;2023-04-28T03:01:34;8.10;74.60
792;DHT22;379;49.022;12.148;2023-04-28T03:04:00;8.10;74.60
792;DHT22;379;49.022;12.148;2023-04-28T03:06:27;8.20;74.50
792;DHT22;379;49.022;12.148;2023-04-28T03:08:55;8.20;74.40
792;DHT22;379;49.022;12.148;2023-04-28T03:11:22;8.20;74.60
792;DHT22;379;49.022;12.148;2023-04-28T03:13:49;8.10;74.80
792;DHT22;379;49.022;12.148;2023-04-28T03:16:16;8.20;74.70
792;DHT22;379;49.022;12.148;2023-04-28T03:18:42;8.20;74.90
792;DHT22;379;49.022;12.148;2023-04-28T03:21:09;8.20;75.20
792;DHT22;379;49.022;12.148;2023-04-28T03:23:36;8.10;75.10
792;DHT22;379;49.022;12.148;2023-04-28T03:26:04;8.10;75.20
792;DHT22;379;49.022;12.148;2023-04-28T03:28:31;8.10;75.30
792;DHT22;379;49.022;12.148;2023-04-28T03:30:58;8.30;75.30
792;DHT22;379;49.022;12.148;2023-04-28T03:33:25;8.20;75.10
792;DHT22;379;49.022;12.148;2023-04-28T03:35:51;8.20;75.10
792;DHT22;379;49.022;12.148;2023-04-28T03:38:19;8.20;75.00
792;DHT22;379;49.022;12.148;2023-04-28T03:40:45;8.30;74.90
792;DHT22;379;49.022;12.148;2023-04-28T03:43:13;8.30;74.80
792;DHT22;379;49.022;12.148;2023-04-28T03:45:40;8.30;74.60
792;DHT22;379;49.022;12.148;2023-04-28T03:48:07;8.40;74.40
792;DHT22;379;49.022;12.148;2023-04-28T03:50:34;8.40;74.20
792;DHT22;379;49.022;12.148;2023-04-28T03:53:00;8.50;73.80
792;DHT22;379;49.022;12.148;2023-04-28T03:55:27;8.40;73.60
792;DHT22;379;49.022;12.148;2023-04-28T03:57:54;8.40;73.60
792;DHT22;379;49.022;12.148;2023-04-28T04:00:22;8.50;73.30
792;DHT22;379;49.022;12.148;2023-04-28T04:02:49;8.60;73.20
792;DHT22;379;49.022;12.148;2023-04-28T04:05:15;8.50;73.20
792;DHT22;379;49.022;12.148;2023-04-28T04:07:42;8.60;73.10
792;DHT22;379;49.022;12.148;2023-04-28T04:10:09;8.60;73.00
792;DHT22;379;49.022;12.148;2023-04-28T04:12:36;8.60;72.90
792;DHT22;379;49.022;12.148;2023-04-28T04:15:03;8.60;73.00
792;DHT22;379;49.022;12.148;2023-04-28T04:17:32;8.60;72.90
792;DHT22;379;49.022;12.148;2023-04-28T04:19:59;8.70;72.60
792;DHT22;379;49.022;12.148;2023-04-28T04:22:26;8.80;72.20
792;DHT22;379;49.022;12.148;2023-04-28T04:24:52;8.90;71.70
792;DHT22;379;49.022;12.148;2023-04-28T04:27:19;9.00;71.50
792;DHT22;379;49.022;12.148;2023-04-28T04:29:46;9.00;71.50
792;DHT22;379;49.022;12.148;2023-04-28T04:32:13;9.00;71.40
792;DHT22;379;49.022;12.148;2023-04-28T04:34:41;9.00;71.30
792;DHT22;379;49.022;12.148;2023-04-28T04:37:08;9.10;71.20
792;DHT22;379;49.022;12.148;2023-04-28T04:39:35;9.10;70.80
792;DHT22;379;49.022;12.148;2023-04-28T04:42:01;9.20;70.70
792;DHT22;379;49.022;12.148;2023-04-28T04:44:28;9.20;70.50
792;DHT22;379;49.022;12.148;2023-04-28T04:46:55;9.20;70.40
792;DHT22;379;49.022;12.148;2023-04-28T04:49:21;9.20;70.30
792;DHT22;379;49.022;12.148;2023-04-28T04:51:49;9.20;70.60
792;DHT22;379;49.022;12.148;2023-04-28T04:54:16;9.30;70.60
792;DHT22;379;49.022;12.148;2023-04-28T04:56:43;9.30;70.50
792;DHT22;379;49.022;12.148;2023-04-28T04:59:10;9.20;70.60
792;DHT22;379;49.022;12.148;2023-04-28T05:01:36;9.20;70.50
792;DHT22;379;49.022;12.148;2023-04-28T05:04:03;9.30;70.30
792;DHT22;379;49.022;12.148;2023-04-28T05:06:30;9.30;70.20
792;DHT22;379;49.022;12.148;2023-04-28T05:08:59;9.30;70.20
792;DHT22;379;49.022;12.148;2023-04-28T05:11:26;9.40;70.40
792;DHT22;379;49.022;12.148;2023-04-28T05:13:52;9.40;70.30
792;DHT22;379;49.022;12.148;2023-04-28T05:16:19;9.50;70.10
792;DHT22;379;49.022;12.148;2023-04-28T05:18:46;9.60;70.00
792;DHT22;379;49.022;12.148;2023-04-28T05:21:13;9.70;70.00
792;DHT22;379;49.022;12.148;2023-04-28T05:23:40;9.80;69.80
792;DHT22;379;49.022;12.148;2023-04-28T05:26:08;9.90;69.60
792;DHT22;379;49.022;12.148;2023-04-28T05:28:35;9.90;69.60
792;DHT22;379;49.022;12.148;2023-04-28T05:31:02;9.80;69.80
792;DHT22;379;49.022;12.148;2023-04-28T05:33:28;9.80;69.80
792;DHT22;379;49.022;12.148;2023-04-28T05:35:55;9.90;69.60
792;DHT22;379;49.022;12.148;2023-04-28T05:38:22;9.90;69.30
792;DHT22;379;49.022;12.148;2023-04-28T05:40:49;10.00;68.10
792;DHT22;379;49.022;12.148;2023-04-28T05:43:17;10.20;68.10
792;DHT22;379;49.022;12.148;2023-04-28T05:45:43;10.20;67.90
792;DHT22;379;49.022;12.148;2023-04-28T05:48:10;10.40;67.60
792;DHT22;379;49.022;12.148;2023-04-28T05:50:37;10.40;67.50
792;DHT22;379;49.022;12.148;2023-04-28T05:53:03;10.40;67.40
792;DHT22;379;49.022;12.148;2023-04-28T05:55:32;10.40;67.30
792;DHT22;379;49.022;12.148;2023-04-28T05:58:00;10.30;67.50
792;DHT22;379;49.022;12.148;2023-04-28T06:00:28;10.30;67.80
792;DHT22;379;49.022;12.148;2023-04-28T06:02:56;10.20;67.90
792;DHT22;379;49.022;12.148;2023-04-28T06:05:22;10.30;68.20
792;DHT22;379;49.022;12.148;2023-04-28T06:07:49;10.40;68.40
792;DHT22;379;49.022;12.148;2023-04-28T06:10:16;10.40;68.10
792;DHT22;379;49.022;12.148;2023-04-28T06:12:43;10.40;68.00
792;DHT22;379;49.022;12.148;2023-04-28T06:15:10;10.40;68.10
792;DHT22;379;49.022;12.148;2023-04-28T06:17:39;10.50;68.00
792;DHT22;379;49.022;12.148;2023-04-28T06:20:06;10.50;67.60
792;DHT22;379;49.022;12.148;2023-04-28T06:22:35;10.50;67.60
792;DHT22;379;49.022;12.148;2023-04-28T06:25:02;10.50;67.80
792;DHT22;379;49.022;12.148;2023-04-28T06:27:28;10.50;68.60
792;DHT22;379;49.022;12.148;2023-04-28T06:29:57;10.50;67.70
792;DHT22;379;49.022;12.148;2023-04-28T06:32:23;10.50;67.70
792;DHT22;379;49.022;12.148;2023-04-28T06:34:52;10.50;67.90
792;DHT22;379;49.022;12.148;2023-04-28T06:37:18;10.50;67.90
792;DHT22;379;49.022;12.148;2023-04-28T06:39:45;10.50;68.10
792;DHT22;379;49.022;12.148;2023-04-28T06:42:12;10.50;68.20
792;DHT22;379;49.022;12.148;2023-04-28T06:44:42;10.50;68.30
792;DHT22;379;49.022;12.148;2023-04-28T06:47:09;10.50;68.40
792;DHT22;379;49.022;12.148;2023-04-28T06:49:39;10.50;68.80
792;DHT22;379;49.022;12.148;2023-04-28T06:52:09;10.40;68.90
792;DHT22;379;49.022;12.148;2023-04-28T06:54:36;10.50;68.90
792;DHT22;379;49.022;12.148;2023-04-28T06:57:03;10.50;68.90
792;DHT22;379;49.022;12.148;2023-04-28T06:59:30;10.50;68.90
792;DHT22;379;49.022;12.148;2023-04-28T07:01:57;10.50;69.20
792;DHT22;379;49.022;12.148;2023-04-28T07:04:23;10.50;69.00
792;DHT22;379;49.022;12.148;2023-04-28T07:06:50;10.50;69.40
792;DHT22;379;49.022;12.148;2023-04-28T07:09:19;10.50;69.40
792;DHT22;379;49.022;12.148;2023-04-28T07:11:45;10.60;69.00
792;DHT22;379;49.022;12.148;2023-04-28T07:14:12;10.70;69.10
792;DHT22;379;49.022;12.148;2023-04-28T07:16:39;10.70;68.90
792;DHT22;379;49.022;12.148;2023-04-28T07:19:05;10.70;69.40
792;DHT22;379;49.022;12.148;2023-04-28T07:21:32;10.90;69.60
792;DHT22;379;49.022;12.148;2023-04-28T07:24:00;10.90;68.50
792;DHT22;379;49.022;12.148;2023-04-28T07:26:28;11.00;68.60
792;DHT22;379;49.022;12.148;2023-04-28T07:28:55;11.10;68.80
792;DHT22;379;49.022;12.148;2023-04-28T07:31:21;11.20;68.60
792;DHT22;379;49.022;12.148;2023-04-28T07:33:48;11.40;68.80
792;DHT22;379;49.022;12.148;2023-04-28T07:36:15;11.60;68.50
792;DHT22;379;49.022;12.148;2023-04-28T07:38:42;11.70;68.80
792;DHT22;379;49.022;12.148;2023-04-28T07:41:08;11.90;68.10
792;DHT22;379;49.022;12.148;2023-04-28T07:43:36;11.90;69.00
792;DHT22;379;49.022;12.148;2023-04-28T07:46:03;12.00;69.40
792;DHT22;379;49.022;12.148;2023-04-28T07:48:30;12.00;69.70
792;DHT22;379;49.022;12.148;2023-04-28T07:50:57;12.10;71.10
792;DHT22;379;49.022;12.148;2023-04-28T07:53:24;12.10;71.70
792;DHT22;379;49.022;12.148;2023-04-28T07:55:50;12.00;72.30
792;DHT22;379;49.022;12.148;2023-04-28T07:58:17;11.90;72.90
792;DHT22;379;49.022;12.148;2023-04-28T08:00:45;11.80;73.90
792;DHT22;379;49.022;12.148;2023-04-28T08:03:12;11.70;74.40
792;DHT22;379;49.022;12.148;2023-04-28T08:05:39;11.60;75.30
792;DHT22;379;49.022;12.148;2023-04-28T08:08:06;11.60;74.00
792;DHT22;379;49.022;12.148;2023-04-28T08:10:33;11.60;74.00
792;DHT22;379;49.022;12.148;2023-04-28T08:13:00;11.60;74.50
792;DHT22;379;49.022;12.148;2023-04-28T08:15:27;11.60;75.00
792;DHT22;379;49.022;12.148;2023-04-28T08:17:55;11.70;76.00
792;DHT22;379;49.022;12.148;2023-04-28T08:20:21;11.80;75.40
792;DHT22;379;49.022;12.148;2023-04-28T08:22:49;12.00;73.50
792;DHT22;379;49.022;12.148;2023-04-28T08:25:16;12.00;75.30
792;DHT22;379;49.022;12.148;2023-04-28T08:27:43;12.00;75.20
792;DHT22;379;49.022;12.148;2023-04-28T08:30:10;12.00;75.40
792;DHT22;379;49.022;12.148;2023-04-28T08:32:36;11.90;75.80
792;DHT22;379;49.022;12.148;2023-04-28T08:35:05;11.80;75.80
792;DHT22;379;49.022;12.148;2023-04-28T08:37:33;11.70;76.40
792;DHT22;379;49.022;12.148;2023-04-28T08:40:00;11.70;76.60
792;DHT22;379;49.022;12.148;2023-04-28T08:42:29;11.70;76.90
792;DHT22;379;49.022;12.148;2023-04-28T08:44:57;11.70;77.20
792;DHT22;379;49.022;12.148;2023-04-28T08:47:31;11.70;78.40
792;DHT22;379;49.022;12.148;2023-04-28T08:50:02;11.60;78.30
792;DHT22;379;49.022;12.148;2023-04-28T08:52:32;11.50;79.30
792;DHT22;379;49.022;12.148;2023-04-28T08:55:00;11.40;79.30
792;DHT22;379;49.022;12.148;2023-04-28T08:57:28;11.30;80.30
792;DHT22;379;49.022;12.148;2023-04-28T08:59:57;11.20;80.80
792;DHT22;379;49.022;12.148;2023-04-28T09:02:24;11.30;82.20
792;DHT22;379;49.022;12.148;2023-04-28T09:04:51;11.40;82.50
792;DHT22;379;49.022;12.148;2023-04-28T09:07:18;11.40;82.90
792;DHT22;379;49.022;12.148;2023-04-28T09:09:46;11.40;82.90
792;DHT22;379;49.022;12.148;2023-04-28T09:12:12;11.40;83.50
792;DHT22;379;49.022;12.148;2023-04-28T09:14:39;11.40;83.80
792;DHT22;379;49.022;12.148;2023-04-28T09:17:10;11.40;84.00
792;DHT22;379;49.022;12.148;2023-04-28T09:19:38;11.40;84.70
792;DHT22;379;49.022;12.148;2023-04-28T09:22:07;11.30;83.90
792;DHT22;379;49.022;12.148;2023-04-28T09:24:35;11.20;84.10
792;DHT22;379;49.022;12.148;2023-04-28T09:27:06;11.10;85.10
792;DHT22;379;49.022;12.148;2023-04-28T09:29:36;11.10;84.30
792;DHT22;379;49.022;12.148;2023-04-28T09:32:13;11.00;84.60
792;DHT22;379;49.022;12.148;2023-04-28T09:34:44;10.90;85.50
792;DHT22;379;49.022;12.148;2023-04-28T09:37:14;10.90;85.80
792;DHT22;379;49.022;12.148;2023-04-28T09:39:42;10.90;86.90
792;DHT22;379;49.022;12.148;2023-04-28T09:42:10;10.80;87.30
792;DHT22;379;49.022;12.148;2023-04-28T09:44:56;10.80;87.70
792;DHT22;379;49.022;12.148;2023-04-28T09:47:23;10.80;88.70
792;DHT22;379;49.022;12.148;2023-04-28T09:49:53;10.80;89.40
792;DHT22;379;49.022;12.148;2023-04-28T09:52:21;10.70;89.50
792;DHT22;379;49.022;12.148;2023-04-28T09:54:49;10.70;90.10
792;DHT22;379;49.022;12.148;2023-04-28T09:57:18;10.80;90.60
792;DHT22;379;49.022;12.148;2023-04-28T09:59:48;10.90;90.80
792;DHT22;379;49.022;12.148;2023-04-28T10:02:15;11.10;91.30
792;DHT22;379;49.022;12.148;2023-04-28T10:04:43;11.20;90.60
792;DHT22;379;49.022;12.148;2023-04-28T10:07:11;11.10;90.80
792;DHT22;379;49.022;12.148;2023-04-28T10:09:39;11.10;91.40
792;DHT22;379;49.022;12.148;2023-04-28T10:12:08;11.10;91.70
792;DHT22;379;49.022;12.148;2023-04-28T10:14:37;11.10;91.80
792;DHT22;379;49.022;12.148;2023-04-28T10:17:04;11.10;91.80
792;DHT22;379;49.022;12.148;2023-04-28T10:19:32;11.00;92.20
792;DHT22;379;49.022;12.148;2023-04-28T10:22:08;11.00;92.50
792;DHT22;379;49.022;12.148;2023-04-28T10:24:52;10.90;93.00
792;DHT22;379;49.022;12.148;2023-04-28T10:27:28;10.90;93.90
792;DHT22;379;49.022;12.148;2023-04-28T10:30:10;10.90;94.80
792;DHT22;379;49.022;12.148;2023-04-28T10:32:37;10.90;95.30
792;DHT22;379;49.022;12.148;2023-04-28T10:35:41;10.80;95.70
792;DHT22;379;49.022;12.148;2023-04-28T10:38:10;10.70;96.10
792;DHT22;379;49.022;12.148;2023-04-28T10:40:39;10.60;97.10
792;DHT22;379;49.022;12.148;2023-04-28T10:43:07;10.50;97.80
792;DHT22;379;49.022;12.148;2023-04-28T10:46:01;10.40;98.40
792;DHT22;379;49.022;12.148;2023-04-28T10:48:51;10.40;99.90
792;DHT22;379;49.022;12.148;2023-04-28T10:51:36;10.40;99.90
792;DHT22;379;49.022;12.148;2023-04-28T10:54:13;10.40;99.90
792;DHT22;379;49.022;12.148;2023-04-28T10:57:14;10.40;99.90
792;DHT22;379;49.022;12.148;2023-04-28T10:59:41;10.40;99.90
792;DHT22;379;49.022;12.148;2023-04-28T11:02:41;10.40;99.90
792;DHT22;379;49.022;12.148;2023-04-28T11:05:13;10.40;99.90
792;DHT22;379;49.022;12.148;2023-04-28T11:07:42;10.50;99.90
792;DHT22;379;49.022;12.148;2023-04-28T11:13:30;10.70;99.90
792;DHT22;379;49.022;12.148;2023-04-28T11:16:02;10.80;99.90
792;DHT22;379;49.022;12.148;2023-04-28T11:18:29;10.90;99.90
792;DHT22;379;49.022;12.148;2023-04-28T11:20:57;11.10;99.90
792;DHT22;379;49.022;12.148;2023-04-28T11:23:27;11.20;99.90
792;DHT22;379;49.022;12.148;2023-04-28T11:25:54;11.40;99.90
792;DHT22;379;49.022;12.148;2023-04-28T11:28:22;11.60;99.90
792;DHT22;379;49.022;12.148;2023-04-28T11:30:50;11.70;99.90
792;DHT22;379;49.022;12.148;2023-04-28T11:33:17;11.90;99.90
792;DHT22;379;49.022;12.148;2023-04-28T11:35:44;12.00;99.90
792;DHT22;379;49.022;12.148;2023-04-28T11:38:11;12.00;99.90
792;DHT22;379;49.022;12.148;2023-04-28T11:40:37;11.90;99.90
792;DHT22;379;49.022;12.148;2023-04-28T11:43:04;11.70;99.90
792;DHT22;379;49.022;12.148;2023-04-28T11:45:31;11.60;99.90
792;DHT22;379;49.022;12.148;2023-04-28T11:47:59;11.50;99.90
792;DHT22;379;49.022;12.148;2023-04-28T11:50:37;11.60;99.90
792;DHT22;379;49.022;12.148;2023-04-28T11:53:03;11.70;99.90
792;DHT22;379;49.022;12.148;2023-04-28T11:55:30;11.70;99.90
792;DHT22;379;49.022;12.148;2023-04-28T11:58:18;11.60;99.90
792;DHT22;379;49.022;12.148;2023-04-28T12:01:07;11.60;99.90
792;DHT22;379;49.022;12.148;2023-04-28T12:03:43;11.60;99.90
792;DHT22;379;49.022;12.148;2023-04-28T12:06:10;11.50;99.90
792;DHT22;379;49.022;12.148;2023-04-28T12:08:37;11.40;99.90
792;DHT22;379;49.022;12.148;2023-04-28T12:11:07;11.40;99.90
792;DHT22;379;49.022;12.148;2023-04-28T12:13:35;11.40;99.90
792;DHT22;379;49.022;12.148;2023-04-28T12:16:03;11.50;99.90
792;DHT22;379;49.022;12.148;2023-04-28T12:18:30;11.60;99.90
792;DHT22;379;49.022;12.148;2023-04-28T12:20:59;11.60;99.90
792;DHT22;379;49.022;12.148;2023-04-28T12:23:29;11.60;99.90
792;DHT22;379;49.022;12.148;2023-04-28T12:25:57;11.70;99.90
792;DHT22;379;49.022;12.148;2023-04-28T12:28:35;11.70;99.90
792;DHT22;379;49.022;12.148;2023-04-28T12:31:04;11.70;99.90
792;DHT22;379;49.022;12.148;2023-04-28T12:33:31;11.70;99.90
792;DHT22;379;49.022;12.148;2023-04-28T12:36:03;11.70;99.90
792;DHT22;379;49.022;12.148;2023-04-28T12:38:32;11.70;99.90
792;DHT22;379;49.022;12.148;2023-04-28T12:40:58;11.70;99.90
792;DHT22;379;49.022;12.148;2023-04-28T12:43:25;11.70;99.90
792;DHT22;379;49.022;12.148;2023-04-28T12:45:53;11.80;99.90
792;DHT22;379;49.022;12.148;2023-04-28T12:48:21;11.90;99.90
792;DHT22;379;49.022;12.148;2023-04-28T12:50:49;12.00;99.90
792;DHT22;379;49.022;12.148;2023-04-28T12:53:17;12.00;99.90
792;DHT22;379;49.022;12.148;2023-04-28T12:55:44;12.00;99.90
792;DHT22;379;49.022;12.148;2023-04-28T12:58:11;12.00;99.90
792;DHT22;379;49.022;12.148;2023-04-28T13:00:37;12.00;99.90
792;DHT22;379;49.022;12.148;2023-04-28T13:03:06;12.10;99.90
792;DHT22;379;49.022;12.148;2023-04-28T13:05:32;12.10;99.90
792;DHT22;379;49.022;12.148;2023-04-28T13:08:00;12.20;99.90
792;DHT22;379;49.022;12.148;2023-04-28T13:10:28;12.30;99.90
792;DHT22;379;49.022;12.148;2023-04-28T13:12:55;12.40;99.90
792;DHT22;379;49.022;12.148;2023-04-28T13:15:22;12.40;99.90
792;DHT22;379;49.022;12.148;2023-04-28T13:17:49;12.40;99.90
792;DHT22;379;49.022;12.148;2023-04-28T13:20:16;12.50;99.90
792;DHT22;379;49.022;12.148;2023-04-28T13:22:42;12.50;99.90
792;DHT22;379;49.022;12.148;2023-04-28T13:25:09;12.50;99.90
792;DHT22;379;49.022;12.148;2023-04-28T13:27:37;12.50;99.90
792;DHT22;379;49.022;12.148;2023-04-28T13:30:05;12.50;99.90
792;DHT22;379;49.022;12.148;2023-04-28T13:32:33;12.50;99.90
792;DHT22;379;49.022;12.148;2023-04-28T13:35:00;12.50;99.90
792;DHT22;379;49.022;12.148;2023-04-28T13:37:27;12.50;99.90
792;DHT22;379;49.022;12.148;2023-04-28T13:39:53;12.60;99.90
792;DHT22;379;49.022;12.148;2023-04-28T13:42:20;12.60;99.90
792;DHT22;379;49.022;12.148;2023-04-28T13:44:48;12.70;99.90
792;DHT22;379;49.022;12.148;2023-04-28T13:47:17;13.00;99.90
792;DHT22;379;49.022;12.148;2023-04-28T13:49:44;13.30;99.90
792;DHT22;379;49.022;12.148;2023-04-28T13:52:12;13.50;99.90
792;DHT22;379;49.022;12.148;2023-04-28T13:54:40;13.60;99.90
792;DHT22;379;49.022;12.148;2023-04-28T13:57:07;13.50;99.90
792;DHT22;379;49.022;12.148;2023-04-28T13:59:34;13.30;99.90
792;DHT22;379;49.022;12.148;2023-04-28T14:02:02;13.10;99.90
792;DHT22;379;49.022;12.148;2023-04-28T14:04:29;12.80;99.90
792;DHT22;379;49.022;12.148;2023-04-28T14:06:55;12.70;99.90
792;DHT22;379;49.022;12.148;2023-04-28T14:09:22;12.50;99.90
792;DHT22;379;49.022;12.148;2023-04-28T14:11:49;12.50;99.90
792;DHT22;379;49.022;12.148;2023-04-28T14:16:43;12.60;99.90
792;DHT22;379;49.022;12.148;2023-04-28T14:19:12;12.80;99.90
792;DHT22;379;49.022;12.148;2023-04-28T14:21:41;12.90;99.90
792;DHT22;379;49.022;12.148;2023-04-28T14:24:08;13.00;99.90
792;DHT22;379;49.022;12.148;2023-04-28T14:26:35;12.90;99.90
792;DHT22;379;49.022;12.148;2023-04-28T14:29:02;12.90;99.90
792;DHT22;379;49.022;12.148;2023-04-28T14:31:30;12.80;99.90
792;DHT22;379;49.022;12.148;2023-04-28T14:33:56;12.70;99.90
792;DHT22;379;49.022;12.148;2023-04-28T14:36:24;12.60;99.90
792;DHT22;379;49.022;12.148;2023-04-28T14:38:51;12.60;99.90
792;DHT22;379;49.022;12.148;2023-04-28T14:41:18;12.60;99.90
792;DHT22;379;49.022;12.148;2023-04-28T14:43:45;12.60;99.90
792;DHT22;379;49.022;12.148;2023-04-28T14:46:12;12.60;99.90
792;DHT22;379;49.022;12.148;2023-04-28T14:48:39;12.60;99.90
792;DHT22;379;49.022;12.148;2023-04-28T14:51:05;12.60;99.90
792;DHT22;379;49.022;12.148;2023-04-28T14:53:34;12.60;99.90
792;DHT22;379;49.022;12.148;2023-04-28T14:56:01;12.50;99.90
792;DHT22;379;49.022;12.148;2023-04-28T14:58:28;12.50;99.90
792;DHT22;379;49.022;12.148;2023-04-28T15:00:55;12.40;99.90
792;DHT22;379;49.022;12.148;2023-04-28T15:03:22;12.30;99.90
792;DHT22;379;49.022;12.148;2023-04-28T15:05:48;12.30;99.90
792;DHT22;379;49.022;12.148;2023-04-28T15:08:15;12.30;99.90
792;DHT22;379;49.022;12.148;2023-04-28T15:10:43;12.30;99.90
792;DHT22;379;49.022;12.148;2023-04-28T15:13:10;12.30;99.90
792;DHT22;379;49.022;12.148;2023-04-28T15:15:37;12.30;99.90
792;DHT22;379;49.022;12.148;2023-04-28T15:18:04;12.30;99.90
792;DHT22;379;49.022;12.148;2023-04-28T15:20:32;12.30;99.90
792;DHT22;379;49.022;12.148;2023-04-28T15:22:59;12.30;99.90
792;DHT22;379;49.022;12.148;2023-04-28T15:25:25;12.30;99.90
792;DHT22;379;49.022;12.148;2023-04-28T15:27:53;12.40;99.90
792;DHT22;379;49.022;12.148;2023-04-28T15:30:20;12.50;99.90
792;DHT22;379;49.022;12.148;2023-04-28T15:32:48;12.60;99.90
792;DHT22;379;49.022;12.148;2023-04-28T15:35:15;12.70;99.90
792;DHT22;379;49.022;12.148;2023-04-28T15:37:44;12.80;99.90
792;DHT22;379;49.022;12.148;2023-04-28T15:40:13;12.80;99.90
792;DHT22;379;49.022;12.148;2023-04-28T15:42:40;12.80;99.90
792;DHT22;379;49.022;12.148;2023-04-28T15:45:11;12.70;99.90
792;DHT22;379;49.022;12.148;2023-04-28T15:47:38;12.70;99.90
792;DHT22;379;49.022;12.148;2023-04-28T15:50:06;12.70;99.90
792;DHT22;379;49.022;12.148;2023-04-28T15:52:33;12.60;99.90
792;DHT22;379;49.022;12.148;2023-04-28T15:55:00;12.70;99.90
792;DHT22;379;49.022;12.148;2023-04-28T15:57:27;12.70;99.90
792;DHT22;379;49.022;12.148;2023-04-28T15:59:54;12.80;99.90
792;DHT22;379;49.022;12.148;2023-04-28T16:02:22;13.00;99.90
792;DHT22;379;49.022;12.148;2023-04-28T16:04:48;12.90;99.90
792;DHT22;379;49.022;12.148;2023-04-28T16:07:15;12.80;99.90
792;DHT22;379;49.022;12.148;2023-04-28T16:09:42;12.60;99.90
792;DHT22;379;49.022;12.148;2023-04-28T16:12:09;12.50;99.90
792;DHT22;379;49.022;12.148;2023-04-28T16:14:36;12.40;99.90
792;DHT22;379;49.022;12.148;2023-04-28T16:17:03;12.40;99.90
792;DHT22;379;49.022;12.148;2023-04-28T16:19:31;12.40;99.90
792;DHT22;379;49.022;12.148;2023-04-28T16:21:58;12.30;99.90
792;DHT22;379;49.022;12.148;2023-04-28T16:24:25;12.20;99.90
792;DHT22;379;49.022;12.148;2023-04-28T16:26:53;12.10;99.90
792;DHT22;379;49.022;12.148;2023-04-28T16:29:20;12.20;99.90
792;DHT22;379;49.022;12.148;2023-04-28T16:31:48;12.20;99.90
792;DHT22;379;49.022;12.148;2023-04-28T16:34:14;12.20;99.90